sensor_id;sensor_type;location;lat;lon;timestamp;pressure;altitude;pressure_sealevel;temperature;humidity
68329;BME280;55182;56.864;60.554;2023-02-28T00:01:52;75423.50;;;-143.60;69.36
68329;BME280;55182;56.864;60.554;2023-02-28T00:04:17;75413.44;;;-143.60;69.38
68329;BME280;55182;56.864;60.554;2023-02-28T00:06:43;75413.44;;;-143.60;69.71
68329;BME280;55182;56.864;60.554;2023-02-28T00:09:08;75417.47;;;-143.60;69.65
68329;BME280;55182;56.864;60.554;2023-02-28T00:11:34;75417.47;;;-143.60;69.57
68329;BME280;55182;56.864;60.554;2023-02-28T00:14:00;75417.47;;;-143.60;69.78
68329;BME280;55182;56.864;60.554;2023-02-28T00:16:25;75415.47;;;-143.60;70.69
68329;BME280;55182;56.864;60.554;2023-02-28T00:18:51;75407.44;;;-143.60;70.46
68329;BME280;55182;56.864;60.554;2023-02-28T00:21:16;75409.44;;;-143.60;70.25
68329;BME280;55182;56.864;60.554;2023-02-28T00:23:42;75407.44;;;-143.60;69.55
68329;BME280;55182;56.864;60.554;2023-02-28T00:26:08;75411.44;;;-143.60;69.80
68329;BME280;55182;56.864;60.554;2023-02-28T00:28:33;75399.38;;;-143.60;69.63
68329;BME280;55182;56.864;60.554;2023-02-28T00:30:59;75391.34;;;-143.60;69.43
68329;BME280;55182;56.864;60.554;2023-02-28T00:33:25;75387.34;;;-143.60;69.75
68329;BME280;55182;56.864;60.554;2023-02-28T00:35:50;75389.34;;;-143.60;69.58
68329;BME280;55182;56.864;60.554;2023-02-28T00:38:15;75383.31;;;-143.60;69.59
68329;BME280;55182;56.864;60.554;2023-02-28T00:40:41;75381.31;;;-143.60;69.52
68329;BME280;55182;56.864;60.554;2023-02-28T00:43:06;75377.28;;;-143.60;69.49
68329;BME280;55182;56.864;60.554;2023-02-28T00:45:32;75367.25;;;-143.60;69.38
68329;BME280;55182;56.864;60.554;2023-02-28T00:47:57;75371.25;;;-143.60;69.59
68329;BME280;55182;56.864;60.554;2023-02-28T00:50:23;75369.25;;;-143.60;69.57
68329;BME280;55182;56.864;60.554;2023-02-28T00:52:48;75371.25;;;-143.60;69.53
68329;BME280;55182;56.864;60.554;2023-02-28T00:55:14;75371.25;;;-143.60;69.50
68329;BME280;55182;56.864;60.554;2023-02-28T00:57:39;75371.25;;;-143.60;69.67
68329;BME280;55182;56.864;60.554;2023-02-28T01:00:24;75375.28;;;-143.60;69.60
68329;BME280;55182;56.864;60.554;2023-02-28T01:02:49;75373.28;;;-143.60;69.62
68329;BME280;55182;56.864;60.554;2023-02-28T01:05:15;75365.22;;;-143.60;69.75
68329;BME280;55182;56.864;60.554;2023-02-28T01:07:40;75365.22;;;-143.60;69.78
68329;BME280;55182;56.864;60.554;2023-02-28T01:10:06;75371.25;;;-143.60;69.64
68329;BME280;55182;56.864;60.554;2023-02-28T01:12:31;75361.22;;;-143.60;69.46
68329;BME280;55182;56.864;60.554;2023-02-28T01:14:57;75357.19;;;-143.60;69.38
68329;BME280;55182;56.864;60.554;2023-02-28T01:17:22;75355.19;;;-143.60;69.30
68329;BME280;55182;56.864;60.554;2023-02-28T01:19:48;75351.16;;;-143.60;69.11
68329;BME280;55182;56.864;60.554;2023-02-28T01:22:13;75343.13;;;-143.60;69.39
68329;BME280;55182;56.864;60.554;2023-02-28T01:24:41;75343.13;;;-143.60;69.25
68329;BME280;55182;56.864;60.554;2023-02-28T01:27:06;75345.16;;;-143.60;69.24
68329;BME280;55182;56.864;60.554;2023-02-28T01:29:32;75341.13;;;-143.60;69.34
68329;BME280;55182;56.864;60.554;2023-02-28T01:31:57;75333.09;;;-143.60;69.76
68329;BME280;55182;56.864;60.554;2023-02-28T01:34:23;75323.03;;;-143.60;69.89
68329;BME280;55182;56.864;60.554;2023-02-28T01:36:50;75319.03;;;-143.60;70.00
68329;BME280;55182;56.864;60.554;2023-02-28T01:39:15;75317.00;;;-143.60;70.19
68329;BME280;55182;56.864;60.554;2023-02-28T01:41:41;75313.00;;;-143.60;70.19
68329;BME280;55182;56.864;60.554;2023-02-28T01:44:53;75311.00;;;-143.60;70.55
68329;BME280;55182;56.864;60.554;2023-02-28T01:46:51;75311.00;;;-143.60;70.90
68329;BME280;55182;56.864;60.554;2023-02-28T01:49:17;75302.94;;;-143.60;71.03
68329;BME280;55182;56.864;60.554;2023-02-28T01:51:46;75306.97;;;-143.60;70.88
68329;BME280;55182;56.864;60.554;2023-02-28T01:54:15;75306.97;;;-143.60;71.50
68329;BME280;55182;56.864;60.554;2023-02-28T01:56:44;75311.00;;;-143.60;71.34
68329;BME280;55182;56.864;60.554;2023-02-28T01:59:12;75298.94;;;-143.60;71.61
68329;BME280;55182;56.864;60.554;2023-02-28T02:01:39;75298.94;;;-143.60;71.76
68329;BME280;55182;56.864;60.554;2023-02-28T02:04:05;75302.94;;;-143.60;72.08
68329;BME280;55182;56.864;60.554;2023-02-28T02:06:34;75294.91;;;-143.60;72.03
68329;BME280;55182;56.864;60.554;2023-02-28T02:09:00;75300.94;;;-143.60;72.29
68329;BME280;55182;56.864;60.554;2023-02-28T02:11:25;75298.94;;;-143.60;72.25
68329;BME280;55182;56.864;60.554;2023-02-28T02:22:48;75286.88;;;-143.60;73.51
68329;BME280;55182;56.864;60.554;2023-02-28T02:25:04;75286.88;;;-143.60;73.63
68329;BME280;55182;56.864;60.554;2023-02-28T02:30:21;75292.91;;;-143.60;73.82
68329;BME280;55182;56.864;60.554;2023-02-28T02:40:42;75286.88;;;-143.60;74.10
68329;BME280;55182;56.864;60.554;2023-02-28T02:46:09;75276.84;;;-143.60;73.33
68329;BME280;55182;56.864;60.554;2023-02-28T02:48:36;75278.84;;;-143.60;73.64
68329;BME280;55182;56.864;60.554;2023-02-28T02:51:04;75280.84;;;-143.60;73.69
68329;BME280;55182;56.864;60.554;2023-02-28T02:53:34;75276.84;;;-143.60;73.39
68329;BME280;55182;56.864;60.554;2023-02-28T02:56:02;75272.81;;;-143.60;73.44
68329;BME280;55182;56.864;60.554;2023-02-28T02:58:31;75272.81;;;-143.60;73.10
68329;BME280;55182;56.864;60.554;2023-02-28T03:00:59;75266.78;;;-143.60;73.14
68329;BME280;55182;56.864;60.554;2023-02-28T03:03:25;75258.75;;;-143.60;73.32
68329;BME280;55182;56.864;60.554;2023-02-28T03:05:52;75254.72;;;-143.60;73.20
68329;BME280;55182;56.864;60.554;2023-02-28T03:08:17;75258.75;;;-143.60;73.28
68329;BME280;55182;56.864;60.554;2023-02-28T03:10:44;75252.72;;;-143.60;73.67
68329;BME280;55182;56.864;60.554;2023-02-28T03:15:57;75242.69;;;-143.60;74.20
68329;BME280;55182;56.864;60.554;2023-02-28T03:21:05;75260.75;;;-143.60;74.82
68329;BME280;55182;56.864;60.554;2023-02-28T03:23:42;75270.81;;;-143.60;75.71
68329;BME280;55182;56.864;60.554;2023-02-28T03:26:16;75274.81;;;-143.60;76.20
68329;BME280;55182;56.864;60.554;2023-02-28T03:29:03;75282.88;;;-143.60;76.67
68329;BME280;55182;56.864;60.554;2023-02-28T03:31:38;75280.84;;;-143.60;76.92
68329;BME280;55182;56.864;60.554;2023-02-28T03:34:14;75278.84;;;-143.60;76.80
68329;BME280;55182;56.864;60.554;2023-02-28T03:36:46;75266.78;;;-143.60;76.91
68329;BME280;55182;56.864;60.554;2023-02-28T03:39:33;75266.78;;;-143.60;76.58
68329;BME280;55182;56.864;60.554;2023-02-28T03:42:02;75248.72;;;-143.60;76.54
68329;BME280;55182;56.864;60.554;2023-02-28T03:44:35;75240.66;;;-143.60;76.47
68329;BME280;55182;56.864;60.554;2023-02-28T03:47:03;75236.66;;;-143.60;76.07
68329;BME280;55182;56.864;60.554;2023-02-28T03:49:35;75230.63;;;-143.60;75.80
68329;BME280;55182;56.864;60.554;2023-02-28T03:52:02;75220.59;;;-143.60;75.18
68329;BME280;55182;56.864;60.554;2023-02-28T03:54:32;75218.56;;;-143.60;74.92
68329;BME280;55182;56.864;60.554;2023-02-28T03:57:04;75216.56;;;-143.60;74.43
68329;BME280;55182;56.864;60.554;2023-02-28T03:59:37;75204.50;;;-143.60;74.38
68329;BME280;55182;56.864;60.554;2023-02-28T04:02:04;75202.50;;;-143.60;74.05
68329;BME280;55182;56.864;60.554;2023-02-28T04:04:30;75202.50;;;-143.60;74.09
68329;BME280;55182;56.864;60.554;2023-02-28T04:07:03;75212.53;;;-143.60;73.57
68329;BME280;55182;56.864;60.554;2023-02-28T04:09:29;75210.53;;;-143.60;73.55
68329;BME280;55182;56.864;60.554;2023-02-28T04:11:54;75210.53;;;-143.60;73.42
68329;BME280;55182;56.864;60.554;2023-02-28T04:14:20;75212.53;;;-143.60;73.42
68329;BME280;55182;56.864;60.554;2023-02-28T04:16:45;75214.56;;;-143.60;73.20
68329;BME280;55182;56.864;60.554;2023-02-28T04:19:12;75218.56;;;-143.60;73.26
68329;BME280;55182;56.864;60.554;2023-02-28T04:21:39;75222.59;;;-143.60;73.29
68329;BME280;55182;56.864;60.554;2023-02-28T04:24:07;75220.59;;;-143.60;73.28
68329;BME280;55182;56.864;60.554;2023-02-28T04:26:34;75210.53;;;-143.60;73.21
68329;BME280;55182;56.864;60.554;2023-02-28T04:29:00;75210.53;;;-143.60;73.12
68329;BME280;55182;56.864;60.554;2023-02-28T04:31:26;75200.50;;;-143.60;72.72
68329;BME280;55182;56.864;60.554;2023-02-28T04:33:51;75188.44;;;-143.60;72.38
68329;BME280;55182;56.864;60.554;2023-02-28T04:36:17;75194.47;;;-143.60;72.60
68329;BME280;55182;56.864;60.554;2023-02-28T04:38:43;75194.47;;;-143.60;72.63
68329;BME280;55182;56.864;60.554;2023-02-28T04:41:09;75184.41;;;-143.60;72.69
68329;BME280;55182;56.864;60.554;2023-02-28T04:43:34;75188.44;;;-143.60;72.52
68329;BME280;55182;56.864;60.554;2023-02-28T04:46:01;75186.44;;;-143.60;72.37
68329;BME280;55182;56.864;60.554;2023-02-28T04:48:27;75192.47;;;-143.60;72.33
68329;BME280;55182;56.864;60.554;2023-02-28T04:50:54;75190.44;;;-143.60;72.41
68329;BME280;55182;56.864;60.554;2023-02-28T04:53:20;75192.47;;;-143.60;72.17
68329;BME280;55182;56.864;60.554;2023-02-28T04:55:46;75190.44;;;-143.60;71.81
68329;BME280;55182;56.864;60.554;2023-02-28T04:58:12;75190.44;;;-143.60;71.92
68329;BME280;55182;56.864;60.554;2023-02-28T05:00:38;75194.47;;;-143.60;72.12
68329;BME280;55182;56.864;60.554;2023-02-28T05:03:04;75190.44;;;-143.60;72.30
68329;BME280;55182;56.864;60.554;2023-02-28T05:05:29;75194.47;;;-143.60;72.01
68329;BME280;55182;56.864;60.554;2023-02-28T05:07:55;75192.47;;;-143.60;71.97
68329;BME280;55182;56.864;60.554;2023-02-28T05:10:21;75194.47;;;-143.60;71.85
68329;BME280;55182;56.864;60.554;2023-02-28T05:12:47;75192.47;;;-143.60;71.48
68329;BME280;55182;56.864;60.554;2023-02-28T05:15:13;75194.47;;;-143.60;71.44
68329;BME280;55182;56.864;60.554;2023-02-28T05:17:38;75186.44;;;-143.60;71.87
68329;BME280;55182;56.864;60.554;2023-02-28T05:20:04;75174.38;;;-143.60;71.87
68329;BME280;55182;56.864;60.554;2023-02-28T05:22:30;75166.34;;;-143.60;72.04
68329;BME280;55182;56.864;60.554;2023-02-28T05:24:56;75166.34;;;-143.60;71.67
68329;BME280;55182;56.864;60.554;2023-02-28T05:27:21;75158.31;;;-143.60;71.28
68329;BME280;55182;56.864;60.554;2023-02-28T05:29:47;75154.28;;;-143.60;71.42
68329;BME280;55182;56.864;60.554;2023-02-28T05:32:12;75158.31;;;-143.60;70.72
68329;BME280;55182;56.864;60.554;2023-02-28T05:34:38;75146.25;;;-143.60;70.90
68329;BME280;55182;56.864;60.554;2023-02-28T05:37:04;75142.22;;;-143.60;70.77
68329;BME280;55182;56.864;60.554;2023-02-28T05:39:30;75138.22;;;-143.60;70.67
68329;BME280;55182;56.864;60.554;2023-02-28T05:41:55;75144.25;;;-143.60;70.54
68329;BME280;55182;56.864;60.554;2023-02-28T05:44:20;75152.28;;;-143.60;70.41
68329;BME280;55182;56.864;60.554;2023-02-28T05:46:46;75146.25;;;-143.60;70.68
68329;BME280;55182;56.864;60.554;2023-02-28T05:49:12;75138.22;;;-143.60;71.10
68329;BME280;55182;56.864;60.554;2023-02-28T05:51:37;75122.13;;;-143.60;70.82
68329;BME280;55182;56.864;60.554;2023-02-28T05:54:03;75124.16;;;-143.60;70.09
68329;BME280;55182;56.864;60.554;2023-02-28T05:56:28;75108.06;;;-143.60;69.97
68329;BME280;55182;56.864;60.554;2023-02-28T05:58:54;75096.03;;;-143.60;69.87
68329;BME280;55182;56.864;60.554;2023-02-28T06:01:20;75077.94;;;-143.60;69.38
68329;BME280;55182;56.864;60.554;2023-02-28T06:03:46;75065.88;;;-143.60;68.53
68329;BME280;55182;56.864;60.554;2023-02-28T06:06:12;75051.81;;;-143.60;67.99
68329;BME280;55182;56.864;60.554;2023-02-28T06:08:37;75029.72;;;-143.60;67.60
68329;BME280;55182;56.864;60.554;2023-02-28T06:11:03;75017.69;;;-143.60;66.70
68329;BME280;55182;56.864;60.554;2023-02-28T06:13:28;75011.66;;;-143.60;66.99
68329;BME280;55182;56.864;60.554;2023-02-28T06:15:54;74993.56;;;-143.60;67.14
68329;BME280;55182;56.864;60.554;2023-02-28T06:18:19;74961.44;;;-143.60;66.42
68329;BME280;55182;56.864;60.554;2023-02-28T06:20:51;74941.34;;;-143.60;66.38
68329;BME280;55182;56.864;60.554;2023-02-28T06:23:17;74921.25;;;-143.60;65.96
68329;BME280;55182;56.864;60.554;2023-02-28T06:25:44;74913.22;;;-143.60;65.12
68329;BME280;55182;56.864;60.554;2023-02-28T06:28:10;74901.16;;;-143.60;63.84
68329;BME280;55182;56.864;60.554;2023-02-28T06:30:36;74901.16;;;-143.60;63.84
68329;BME280;55182;56.864;60.554;2023-02-28T06:33:02;74905.19;;;-143.60;63.95
68329;BME280;55182;56.864;60.554;2023-02-28T06:35:27;74913.22;;;-143.60;63.53
68329;BME280;55182;56.864;60.554;2023-02-28T06:37:53;74921.25;;;-143.60;63.91
68329;BME280;55182;56.864;60.554;2023-02-28T06:40:18;74945.34;;;-143.60;63.67
68329;BME280;55182;56.864;60.554;2023-02-28T06:42:44;74975.50;;;-143.60;64.25
68329;BME280;55182;56.864;60.554;2023-02-28T06:45:10;74995.56;;;-143.60;64.92
68329;BME280;55182;56.864;60.554;2023-02-28T06:47:36;75001.59;;;-143.60;64.87
68329;BME280;55182;56.864;60.554;2023-02-28T06:50:02;75003.63;;;-143.60;65.76
68329;BME280;55182;56.864;60.554;2023-02-28T06:52:27;74983.53;;;-143.60;63.96
68329;BME280;55182;56.864;60.554;2023-02-28T06:54:53;74989.56;;;-143.60;63.52
68329;BME280;55182;56.864;60.554;2023-02-28T06:57:19;75013.66;;;-143.60;63.49
68329;BME280;55182;56.864;60.554;2023-02-28T06:59:44;75017.69;;;-143.60;63.89
68329;BME280;55182;56.864;60.554;2023-02-28T07:02:10;75021.69;;;-143.60;63.76
68329;BME280;55182;56.864;60.554;2023-02-28T07:04:35;75021.69;;;-143.60;64.22
68329;BME280;55182;56.864;60.554;2023-02-28T07:07:01;75033.75;;;-143.60;64.46
68329;BME280;55182;56.864;60.554;2023-02-28T07:09:26;75029.72;;;-143.60;64.23
68329;BME280;55182;56.864;60.554;2023-02-28T07:11:52;75037.75;;;-143.60;64.63
68329;BME280;55182;56.864;60.554;2023-02-28T07:14:17;75027.72;;;-143.60;64.60
68329;BME280;55182;56.864;60.554;2023-02-28T07:16:43;75029.72;;;-143.60;65.22
68329;BME280;55182;56.864;60.554;2023-02-28T07:19:08;75015.66;;;-143.60;64.39
68329;BME280;55182;56.864;60.554;2023-02-28T07:21:33;75009.63;;;-143.60;64.04
68329;BME280;55182;56.864;60.554;2023-02-28T07:23:59;74997.59;;;-143.60;64.27
68329;BME280;55182;56.864;60.554;2023-02-28T07:26:24;74981.50;;;-143.60;64.04
68329;BME280;55182;56.864;60.554;2023-02-28T07:28:50;74987.53;;;-143.60;63.54
68329;BME280;55182;56.864;60.554;2023-02-28T07:31:16;74985.53;;;-143.60;63.36
68329;BME280;55182;56.864;60.554;2023-02-28T07:33:41;74981.50;;;-143.60;63.62
68329;BME280;55182;56.864;60.554;2023-02-28T07:36:08;74969.47;;;-143.60;63.03
68329;BME280;55182;56.864;60.554;2023-02-28T07:38:34;74975.50;;;-143.60;62.69
68329;BME280;55182;56.864;60.554;2023-02-28T07:41:01;74987.53;;;-143.60;63.07
68329;BME280;55182;56.864;60.554;2023-02-28T07:43:26;74979.50;;;-143.60;63.42
68329;BME280;55182;56.864;60.554;2023-02-28T07:45:52;74965.44;;;-143.60;64.05
68329;BME280;55182;56.864;60.554;2023-02-28T07:48:18;74971.47;;;-143.60;63.20
68329;BME280;55182;56.864;60.554;2023-02-28T07:50:43;74977.50;;;-143.60;62.99
68329;BME280;55182;56.864;60.554;2023-02-28T07:53:09;74961.44;;;-143.60;63.35
68329;BME280;55182;56.864;60.554;2023-02-28T07:55:34;74965.44;;;-143.60;62.88
68329;BME280;55182;56.864;60.554;2023-02-28T07:58:00;74961.44;;;-143.60;61.99
68329;BME280;55182;56.864;60.554;2023-02-28T08:00:25;74975.50;;;-143.60;62.34
68329;BME280;55182;56.864;60.554;2023-02-28T08:02:51;74983.53;;;-143.60;62.65
68329;BME280;55182;56.864;60.554;2023-02-28T08:05:16;74965.44;;;-143.60;62.72
68329;BME280;55182;56.864;60.554;2023-02-28T08:07:42;74935.31;;;-143.60;62.87
68329;BME280;55182;56.864;60.554;2023-02-28T08:10:08;74905.19;;;-143.60;62.60
68329;BME280;55182;56.864;60.554;2023-02-28T08:12:34;74889.09;;;-143.60;61.46
68329;BME280;55182;56.864;60.554;2023-02-28T08:14:59;74885.09;;;-143.60;59.74
68329;BME280;55182;56.864;60.554;2023-02-28T08:17:25;74897.16;;;-143.60;59.49
68329;BME280;55182;56.864;60.554;2023-02-28T08:19:50;74889.09;;;-143.60;59.71
68329;BME280;55182;56.864;60.554;2023-02-28T08:22:16;74860.97;;;-143.60;59.39
68329;BME280;55182;56.864;60.554;2023-02-28T08:24:41;74858.97;;;-143.60;59.52
68329;BME280;55182;56.864;60.554;2023-02-28T08:27:08;74824.81;;;-143.60;58.95
68329;BME280;55182;56.864;60.554;2023-02-28T08:29:36;74840.91;;;-143.60;58.88
68329;BME280;55182;56.864;60.554;2023-02-28T08:32:01;74838.88;;;-143.60;58.73
68329;BME280;55182;56.864;60.554;2023-02-28T08:34:27;74836.88;;;-143.60;58.55
68329;BME280;55182;56.864;60.554;2023-02-28T08:36:52;74860.97;;;-143.60;58.26
68329;BME280;55182;56.864;60.554;2023-02-28T08:39:18;74873.03;;;-143.60;58.95
68329;BME280;55182;56.864;60.554;2023-02-28T08:41:43;74885.09;;;-143.60;58.70
68329;BME280;55182;56.864;60.554;2023-02-28T08:44:08;74877.06;;;-143.60;59.93
68329;BME280;55182;56.864;60.554;2023-02-28T08:46:34;74854.97;;;-143.60;58.67
68329;BME280;55182;56.864;60.554;2023-02-28T08:48:59;74860.97;;;-143.60;58.32
68329;BME280;55182;56.864;60.554;2023-02-28T08:51:25;74871.03;;;-143.60;57.25
68329;BME280;55182;56.864;60.554;2023-02-28T08:53:51;74893.13;;;-143.60;57.92
68329;BME280;55182;56.864;60.554;2023-02-28T08:56:16;74899.16;;;-143.60;59.45
68329;BME280;55182;56.864;60.554;2023-02-28T08:58:42;74883.09;;;-143.60;60.28
68329;BME280;55182;56.864;60.554;2023-02-28T09:01:09;74865.00;;;-143.60;58.20
68329;BME280;55182;56.864;60.554;2023-02-28T09:03:35;74875.03;;;-143.60;57.93
68329;BME280;55182;56.864;60.554;2023-02-28T09:06:00;74889.09;;;-143.60;59.18
68329;BME280;55182;56.864;60.554;2023-02-28T09:08:27;74889.09;;;-143.60;59.57
68329;BME280;55182;56.864;60.554;2023-02-28T09:10:52;74897.16;;;-143.60;60.64
68329;BME280;55182;56.864;60.554;2023-02-28T09:13:18;74917.22;;;-143.60;60.92
68329;BME280;55182;56.864;60.554;2023-02-28T09:15:44;74931.28;;;-143.60;60.71
68329;BME280;55182;56.864;60.554;2023-02-28T09:18:10;74937.31;;;-143.60;61.00
68329;BME280;55182;56.864;60.554;2023-02-28T09:20:39;74923.25;;;-143.60;61.56
68329;BME280;55182;56.864;60.554;2023-02-28T09:23:06;74905.19;;;-143.60;61.81
68329;BME280;55182;56.864;60.554;2023-02-28T09:25:31;74901.16;;;-143.60;61.48
68329;BME280;55182;56.864;60.554;2023-02-28T09:27:58;74913.22;;;-143.60;62.04
68329;BME280;55182;56.864;60.554;2023-02-28T09:30:23;74923.25;;;-143.60;62.82
68329;BME280;55182;56.864;60.554;2023-02-28T09:32:49;74925.28;;;-143.60;63.76
68329;BME280;55182;56.864;60.554;2023-02-28T09:35:14;74929.28;;;-143.60;63.32
68329;BME280;55182;56.864;60.554;2023-02-28T09:37:40;74931.28;;;-143.60;63.46
68329;BME280;55182;56.864;60.554;2023-02-28T09:40:05;74925.28;;;-143.60;63.94
68329;BME280;55182;56.864;60.554;2023-02-28T09:42:32;74929.28;;;-143.60;63.78
68329;BME280;55182;56.864;60.554;2023-02-28T09:44:59;74913.22;;;-143.60;63.36
68329;BME280;55182;56.864;60.554;2023-02-28T09:47:33;74903.16;;;-143.60;63.99
68329;BME280;55182;56.864;60.554;2023-02-28T09:50:03;74893.13;;;-143.60;63.54
68329;BME280;55182;56.864;60.554;2023-02-28T09:52:31;74893.13;;;-143.60;62.91
68329;BME280;55182;56.864;60.554;2023-02-28T09:57:56;74889.09;;;-143.60;63.86
68329;BME280;55182;56.864;60.554;2023-02-28T10:00:23;74885.09;;;-143.60;63.54
68329;BME280;55182;56.864;60.554;2023-02-28T10:05:16;74891.13;;;-143.60;63.21
68329;BME280;55182;56.864;60.554;2023-02-28T10:07:55;74893.13;;;-143.60;62.82
68329;BME280;55182;56.864;60.554;2023-02-28T10:10:26;74899.16;;;-143.60;62.14
68329;BME280;55182;56.864;60.554;2023-02-28T10:12:54;74905.19;;;-143.60;62.77
68329;BME280;55182;56.864;60.554;2023-02-28T10:15:21;74897.16;;;-143.60;62.98
68329;BME280;55182;56.864;60.554;2023-02-28T10:17:48;74885.09;;;-143.60;63.11
68329;BME280;55182;56.864;60.554;2023-02-28T10:20:20;74895.13;;;-143.60;63.16
68329;BME280;55182;56.864;60.554;2023-02-28T10:25:24;74895.13;;;-143.60;63.61
68329;BME280;55182;56.864;60.554;2023-02-28T10:27:52;74913.22;;;-143.60;63.86
68329;BME280;55182;56.864;60.554;2023-02-28T10:30:19;74909.19;;;-143.60;64.48
68329;BME280;55182;56.864;60.554;2023-02-28T10:32:49;74927.28;;;-143.60;64.29
68329;BME280;55182;56.864;60.554;2023-02-28T10:35:16;74921.25;;;-143.60;64.67
68329;BME280;55182;56.864;60.554;2023-02-28T10:37:43;74929.28;;;-143.60;64.95
68329;BME280;55182;56.864;60.554;2023-02-28T10:42:57;74925.28;;;-143.60;64.92
68329;BME280;55182;56.864;60.554;2023-02-28T10:45:23;74921.25;;;-143.60;65.20
68329;BME280;55182;56.864;60.554;2023-02-28T10:47:51;74913.22;;;-143.60;64.31
68329;BME280;55182;56.864;60.554;2023-02-28T10:50:31;74923.25;;;-143.60;64.46
68329;BME280;55182;56.864;60.554;2023-02-28T10:53:15;74931.28;;;-143.60;64.48
68329;BME280;55182;56.864;60.554;2023-02-28T10:55:42;74927.28;;;-143.60;64.40
68329;BME280;55182;56.864;60.554;2023-02-28T10:58:27;74925.28;;;-143.60;64.65
68329;BME280;55182;56.864;60.554;2023-02-28T11:00:53;74923.25;;;-143.60;64.28
68329;BME280;55182;56.864;60.554;2023-02-28T11:05:50;74911.22;;;-143.60;64.63
68329;BME280;55182;56.864;60.554;2023-02-28T11:08:17;74905.19;;;-143.60;63.99
68329;BME280;55182;56.864;60.554;2023-02-28T11:10:56;74897.16;;;-143.60;64.29
68329;BME280;55182;56.864;60.554;2023-02-28T11:13:27;74901.16;;;-143.60;62.87
68329;BME280;55182;56.864;60.554;2023-02-28T11:15:55;74903.16;;;-143.60;63.01
68329;BME280;55182;56.864;60.554;2023-02-28T11:20:56;74909.19;;;-143.60;62.88
68329;BME280;55182;56.864;60.554;2023-02-28T11:23:24;74891.13;;;-143.60;63.12
68329;BME280;55182;56.864;60.554;2023-02-28T11:25:51;74885.09;;;-143.60;62.84
68329;BME280;55182;56.864;60.554;2023-02-28T11:31:03;74885.09;;;-143.60;62.29
68329;BME280;55182;56.864;60.554;2023-02-28T11:33:30;74877.06;;;-143.60;63.45
68329;BME280;55182;56.864;60.554;2023-02-28T11:35:58;74889.09;;;-143.60;62.70
68329;BME280;55182;56.864;60.554;2023-02-28T11:38:24;74881.06;;;-143.60;61.99
68329;BME280;55182;56.864;60.554;2023-02-28T11:43:30;74891.13;;;-143.60;63.03
68329;BME280;55182;56.864;60.554;2023-02-28T11:48:58;74897.16;;;-143.60;62.86
68329;BME280;55182;56.864;60.554;2023-02-28T11:58:45;74911.22;;;-143.60;63.28
68329;BME280;55182;56.864;60.554;2023-02-28T12:01:18;74919.25;;;-143.60;62.99
68329;BME280;55182;56.864;60.554;2023-02-28T12:03:54;74913.22;;;-143.60;62.49
68329;BME280;55182;56.864;60.554;2023-02-28T12:06:25;74913.22;;;-143.60;62.49
68329;BME280;55182;56.864;60.554;2023-02-28T12:24:00;74885.09;;;-143.60;62.41
68329;BME280;55182;56.864;60.554;2023-02-28T12:26:34;74889.09;;;-143.60;62.43
68329;BME280;55182;56.864;60.554;2023-02-28T12:29:05;74895.13;;;-143.60;62.95
68329;BME280;55182;56.864;60.554;2023-02-28T12:31:56;74893.13;;;-143.60;62.06
68329;BME280;55182;56.864;60.554;2023-02-28T12:34:21;74903.16;;;-143.60;62.38
68329;BME280;55182;56.864;60.554;2023-02-28T12:36:48;74913.22;;;-143.60;62.12
68329;BME280;55182;56.864;60.554;2023-02-28T12:39:16;74919.25;;;-143.60;62.41
68329;BME280;55182;56.864;60.554;2023-02-28T12:44:30;74941.34;;;-143.60;63.12
68329;BME280;55182;56.864;60.554;2023-02-28T12:46:59;74945.34;;;-143.60;62.99
68329;BME280;55182;56.864;60.554;2023-02-28T12:49:30;74947.38;;;-143.60;63.35
68329;BME280;55182;56.864;60.554;2023-02-28T12:51:56;74957.41;;;-143.60;63.73
68329;BME280;55182;56.864;60.554;2023-02-28T13:07:47;74947.38;;;-143.60;64.92
68329;BME280;55182;56.864;60.554;2023-02-28T13:10:16;74935.31;;;-143.60;65.21
68329;BME280;55182;56.864;60.554;2023-02-28T13:12:52;74953.41;;;-143.60;65.02
68329;BME280;55182;56.864;60.554;2023-02-28T13:15:19;74951.38;;;-143.60;65.08
68329;BME280;55182;56.864;60.554;2023-02-28T13:17:53;74943.34;;;-143.60;64.82
68329;BME280;55182;56.864;60.554;2023-02-28T13:20:31;74941.34;;;-143.60;64.25
68329;BME280;55182;56.864;60.554;2023-02-28T13:22:58;74949.38;;;-143.60;64.41
68329;BME280;55182;56.864;60.554;2023-02-28T13:25:57;74955.41;;;-143.60;64.54
68329;BME280;55182;56.864;60.554;2023-02-28T13:31:05;74955.41;;;-143.60;64.30
68329;BME280;55182;56.864;60.554;2023-02-28T13:34:04;74961.44;;;-143.60;64.54
68329;BME280;55182;56.864;60.554;2023-02-28T13:38:52;74969.47;;;-143.60;64.22
68329;BME280;55182;56.864;60.554;2023-02-28T13:43:59;74965.44;;;-143.60;64.48
68329;BME280;55182;56.864;60.554;2023-02-28T13:46:25;74953.41;;;-143.60;64.52
68329;BME280;55182;56.864;60.554;2023-02-28T13:48:50;74967.44;;;-143.60;64.28
68329;BME280;55182;56.864;60.554;2023-02-28T13:51:34;74953.41;;;-143.60;63.96
68329;BME280;55182;56.864;60.554;2023-02-28T13:54:04;74949.38;;;-143.60;64.03
68329;BME280;55182;56.864;60.554;2023-02-28T13:59:42;74959.41;;;-143.60;63.83
68329;BME280;55182;56.864;60.554;2023-02-28T14:04:57;74969.47;;;-143.60;64.62
68329;BME280;55182;56.864;60.554;2023-02-28T14:07:30;74967.44;;;-143.60;64.99
68329;BME280;55182;56.864;60.554;2023-02-28T14:09:57;74961.44;;;-143.60;64.46
68329;BME280;55182;56.864;60.554;2023-02-28T14:15:28;74961.44;;;-143.60;64.97
68329;BME280;55182;56.864;60.554;2023-02-28T14:17:56;74965.44;;;-143.60;64.41
68329;BME280;55182;56.864;60.554;2023-02-28T14:20:22;74973.47;;;-143.60;64.87